Time;durP1;ratioP1;P1;durP2;ratioP2;P2;SDS_P1;SDS_P2;PMS_P1;PMS_P2;Temp;Humidity;BMP_temperature;BMP_pressure;BME280_temperature;BME280_humidity;BME280_pressure;Samples;Min_cycle;Max_cycle;Signal;HPM_P1;HPM_P2
2022/08/10 00:01:17;;;;;;;5.63;1.85;;;20.10;99.90;;;;;;4168032;28;20647;-95
2022/08/10 00:03:18;;;;;;;2.33;1.52;;;20.00;99.90;;;;;;4187780;28;20191;-94
2022/08/10 00:05:19;;;;;;;7.10;1.33;;;20.00;99.90;;;;;;4167603;28;20222;-95
2022/08/10 00:07:20;;;;;;;3.63;1.42;;;19.90;99.90;;;;;;4166732;28;20175;-95
2022/08/10 00:09:22;;;;;;;3.50;1.40;;;19.90;99.90;;;;;;4183872;28;20575;-89
2022/08/10 00:11:24;;;;;;;4.00;1.30;;;19.90;99.90;;;;;;4167198;28;20169;-93
2022/08/10 00:13:25;;;;;;;4.03;1.55;;;19.80;99.90;;;;;;4166871;28;20771;-95
2022/08/10 00:15:26;;;;;;;3.40;1.20;;;19.80;99.90;;;;;;4167681;28;20172;-89
2022/08/10 00:17:26;;;;;;;3.35;1.50;;;19.70;99.90;;;;;;4183945;28;20213;-95
2022/08/10 00:19:27;;;;;;;3.10;1.67;;;19.70;99.90;;;;;;4168448;28;20605;-93
2022/08/10 00:21:28;;;;;;;1.77;1.13;;;19.70;99.90;;;;;;4167267;28;20648;-94
2022/08/10 00:23:29;;;;;;;3.90;1.40;;;19.60;99.90;;;;;;4183599;28;20206;-95
2022/08/10 00:25:29;;;;;;;2.25;1.42;;;19.60;99.90;;;;;;4167129;28;20246;-89
2022/08/10 00:27:30;;;;;;;4.03;1.45;;;19.60;99.90;;;;;;4184235;28;20191;-95
2022/08/10 00:29:31;;;;;;;4.93;1.65;;;19.50;99.90;;;;;;4170296;28;20148;-90
2022/08/10 00:31:32;;;;;;;2.35;1.42;;;19.50;99.90;;;;;;4174210;28;20227;-90
2022/08/10 00:33:33;;;;;;;3.50;1.60;;;19.50;99.90;;;;;;4188624;28;20195;-90
2022/08/10 00:35:33;;;;;;;2.63;1.40;;;19.60;99.90;;;;;;4166306;28;20668;-89
2022/08/10 00:37:34;;;;;;;3.53;1.40;;;19.50;99.90;;;;;;4165933;28;20216;-88
2022/08/10 00:39:35;;;;;;;3.67;1.55;;;19.50;99.90;;;;;;4182765;28;20306;-89
2022/08/10 00:41:35;;;;;;;2.38;1.40;;;19.50;99.90;;;;;;4165718;28;20214;-94
2022/08/10 00:43:36;;;;;;;4.90;1.42;;;19.50;99.90;;;;;;4165790;28;20268;-89
2022/08/10 00:45:38;;;;;;;4.82;1.52;;;19.40;99.90;;;;;;4165565;28;20179;-95
2022/08/10 00:47:38;;;;;;;4.28;1.50;;;19.40;99.90;;;;;;4165976;28;20268;-94
2022/08/10 00:49:40;;;;;;;8.90;1.77;;;19.40;99.90;;;;;;4182888;28;20603;-94
2022/08/10 00:51:41;;;;;;;1.92;1.48;;;19.40;99.90;;;;;;4165341;28;20258;-90
2022/08/10 00:53:42;;;;;;;3.70;1.70;;;19.40;99.90;;;;;;4166442;28;20258;-94
2022/08/10 00:55:42;;;;;;;4.75;1.60;;;19.40;99.90;;;;;;4182937;28;20642;-90
2022/08/10 00:57:45;;;;;;;6.18;1.30;;;19.40;99.90;;;;;;4166604;28;20243;-95
2022/08/10 00:59:46;;;;;;;5.28;1.85;;;19.40;99.90;;;;;;4166226;28;20177;-91
2022/08/10 01:01:47;;;;;;;2.33;1.20;;;19.40;99.90;;;;;;4167375;28;20172;-89
2022/08/10 01:03:48;;;;;;;3.03;1.77;;;19.40;99.90;;;;;;4183287;28;20234;-95
2022/08/10 01:06:16;;;;;;;2.72;1.67;;;19.40;99.90;;;;;;4181851;28;20172;-91
2022/08/10 01:08:30;;;;;;;2.63;1.50;;;19.40;99.90;;;;;;4166279;28;20242;-89
2022/08/10 01:10:42;;;;;;;2.80;1.60;;;19.40;99.90;;;;;;4166639;28;20621;-95
2022/08/10 01:12:59;;;;;;;3.33;1.70;;;19.40;99.90;;;;;;4182260;28;20253;-90
2022/08/10 01:15:28;;;;;;;4.50;1.58;;;19.40;99.90;;;;;;4164905;28;20180;-89
2022/08/10 01:17:53;;;;;;;2.83;1.40;;;19.40;99.90;;;;;;4165727;28;20215;-89
2022/08/10 01:19:59;;;;;;;3.33;1.55;;;19.50;99.90;;;;;;4183174;28;20262;-95
2022/08/10 01:22:38;;;;;;;3.47;1.50;;;19.50;99.90;;;;;;4167065;28;20168;-95
2022/08/10 01:25:00;;;;;;;6.35;2.00;;;19.50;99.90;;;;;;4166039;28;20257;-89
2022/08/10 01:27:15;;;;;;;4.10;1.95;;;19.30;99.90;;;;;;4165649;28;20188;-89
2022/08/10 01:29:34;;;;;;;4.13;1.73;;;19.30;99.90;;;;;;4166023;28;20176;-93
2022/08/10 01:31:41;;;;;;;3.97;1.90;;;19.10;99.90;;;;;;4165383;28;20318;-94
2022/08/10 01:34:10;;;;;;;3.60;1.52;;;19.10;99.90;;;;;;4182464;28;20191;-89
2022/08/10 01:36:19;;;;;;;2.75;1.73;;;19.10;99.90;;;;;;4158058;28;20226;-95
2022/08/10 01:38:29;;;;;;;3.55;1.60;;;19.10;99.90;;;;;;4167324;28;20176;-89
2022/08/10 01:40:34;;;;;;;3.60;1.48;;;19.10;99.90;;;;;;4165883;28;20595;-95
2022/08/10 01:42:37;;;;;;;2.88;1.70;;;19.10;99.90;;;;;;4182801;28;20203;-89
2022/08/10 01:45:03;;;;;;;2.83;1.80;;;19.10;99.90;;;;;;4165940;28;20179;-89
2022/08/10 01:49:30;;;;;;;3.95;1.77;;;19.10;99.90;;;;;;4182424;28;20194;-89
2022/08/10 01:51:45;;;;;;;7.05;1.75;;;19.10;99.90;;;;;;4165481;28;20195;-93
2022/08/10 01:53:59;;;;;;;5.28;2.10;;;19.00;99.90;;;;;;4165360;28;20207;-89
2022/08/10 01:56:01;;;;;;;4.40;1.77;;;18.90;99.90;;;;;;4182254;28;20222;-89
2022/08/10 01:58:04;;;;;;;3.03;1.90;;;19.00;99.90;;;;;;4164751;28;20169;-89
2022/08/10 02:00:06;;;;;;;3.17;1.70;;;19.00;99.90;;;;;;4181769;28;20179;-89
2022/08/10 02:02:12;;;;;;;6.70;2.38;;;18.90;99.90;;;;;;4164869;28;20172;-89
2022/08/10 02:04:15;;;;;;;3.28;1.90;;;18.90;99.90;;;;;;4165553;28;20180;-89
2022/08/10 02:06:17;;;;;;;5.47;1.48;;;18.80;99.90;;;;;;4164896;28;20165;-94
2022/08/10 02:08:22;;;;;;;3.03;1.95;;;18.80;99.90;;;;;;4182252;28;20263;-94
2022/08/10 02:10:24;;;;;;;8.60;2.00;;;18.80;99.90;;;;;;4165100;28;20210;-91
2022/08/10 02:12:29;;;;;;;2.70;1.38;;;18.70;99.90;;;;;;4168358;28;20171;-88
2022/08/10 02:14:33;;;;;;;5.50;1.70;;;18.70;99.90;;;;;;4167967;28;20180;-90
2022/08/10 02:16:36;;;;;;;3.15;1.88;;;18.70;99.90;;;;;;4168613;28;20243;-95
2022/08/10 02:18:40;;;;;;;4.32;1.90;;;18.70;99.90;;;;;;4168055;28;20596;-95
2022/08/10 02:20:45;;;;;;;5.43;1.80;;;18.70;99.90;;;;;;4185042;28;20179;-88
2022/08/10 02:23:01;;;;;;;3.63;1.60;;;18.70;99.90;;;;;;4167921;28;20222;-94
2022/08/10 02:25:03;;;;;;;3.58;1.77;;;18.60;99.90;;;;;;4167548;28;20187;-94
2022/08/10 02:27:05;;;;;;;3.25;1.60;;;18.60;99.90;;;;;;4184544;28;20183;-89
2022/08/10 02:29:07;;;;;;;5.07;1.80;;;18.50;99.90;;;;;;4167621;28;20196;-93
2022/08/10 02:31:11;;;;;;;5.53;1.85;;;18.50;99.90;;;;;;4184395;28;20178;-89
2022/08/10 02:33:16;;;;;;;2.30;1.80;;;18.50;99.90;;;;;;4167496;28;20192;-91
2022/08/10 02:35:18;;;;;;;3.63;1.90;;;18.50;99.90;;;;;;4167681;28;20168;-94
2022/08/10 02:37:23;;;;;;;2.92;1.90;;;18.50;99.90;;;;;;4168492;28;20212;-89
2022/08/10 02:39:25;;;;;;;3.47;1.60;;;18.50;99.90;;;;;;4167660;28;20168;-95
2022/08/10 02:41:56;;;;;;;4.20;1.70;;;18.50;99.90;;;;;;4167096;28;20187;-89
2022/08/10 02:44:06;;;;;;;2.70;1.80;;;18.50;99.90;;;;;;4162987;28;20620;-90
2022/08/10 02:46:11;;;;;;;3.28;1.95;;;18.50;99.90;;;;;;4168570;28;20175;-94
2022/08/10 02:48:32;;;;;;;5.63;1.83;;;18.40;99.90;;;;;;4167915;28;20179;-87
2022/08/10 02:50:35;;;;;;;3.08;2.08;;;18.40;99.90;;;;;;4167953;28;20248;-89
2022/08/10 02:52:44;;;;;;;5.57;1.75;;;18.40;99.90;;;;;;4167740;28;20196;-95
2022/08/10 02:54:53;;;;;;;2.50;1.92;;;18.30;99.90;;;;;;4184167;28;20175;-94
2022/08/10 02:57:09;;;;;;;3.95;1.77;;;18.30;99.90;;;;;;4168939;28;20213;-89
2022/08/10 02:59:37;;;;;;;3.47;2.08;;;18.20;99.90;;;;;;4167392;28;20172;-88
2022/08/10 03:01:46;;;;;;;3.30;1.80;;;18.20;99.90;;;;;;4164579;28;20188;-94
2022/08/10 03:03:56;;;;;;;2.20;1.65;;;18.20;99.90;;;;;;4167725;28;20735;-89
2022/08/10 03:06:02;;;;;;;4.45;2.08;;;18.10;99.90;;;;;;4169097;28;20262;-95
2022/08/10 03:08:05;;;;;;;5.70;1.83;;;18.10;99.90;;;;;;4170082;28;20168;-90
2022/08/10 03:10:10;;;;;;;5.18;2.30;;;18.10;99.90;;;;;;4170104;28;20176;-92
2022/08/10 03:12:14;;;;;;;3.35;2.00;;;18.10;99.90;;;;;;4185752;28;20175;-92
2022/08/10 03:14:15;;;;;;;3.50;1.95;;;18.10;99.90;;;;;;4174949;28;20262;-90
2022/08/10 03:16:18;;;;;;;5.15;2.25;;;18.10;99.90;;;;;;4175222;28;20250;-95
2022/08/10 03:18:23;;;;;;;3.28;1.90;;;18.10;99.90;;;;;;4184708;28;20179;-89
2022/08/10 03:20:29;;;;;;;4.28;2.13;;;18.20;99.90;;;;;;4168577;28;20259;-89
2022/08/10 03:22:31;;;;;;;3.90;2.17;;;18.20;99.90;;;;;;4166503;28;20263;-90
2022/08/10 03:24:33;;;;;;;4.63;2.10;;;18.20;99.90;;;;;;4167387;28;20601;-94
2022/08/10 03:26:36;;;;;;;3.63;2.10;;;18.20;99.90;;;;;;4166993;28;20192;-94
2022/08/10 03:28:38;;;;;;;3.20;1.95;;;18.20;99.90;;;;;;4184218;28;20234;-95
2022/08/10 03:30:39;;;;;;;2.67;2.00;;;18.10;99.90;;;;;;4185392;28;20180;-89
2022/08/10 03:32:42;;;;;;;4.15;2.15;;;18.10;99.90;;;;;;4167823;28;20191;-90
2022/08/10 03:34:43;;;;;;;4.20;2.50;;;18.10;99.90;;;;;;4167839;28;20180;-89
2022/08/10 03:36:44;;;;;;;6.03;2.72;;;18.10;99.90;;;;;;4166549;28;20218;-90
2022/08/10 03:38:50;;;;;;;7.07;2.10;;;18.10;99.90;;;;;;4167177;28;20568;-90
2022/08/10 03:40:54;;;;;;;3.85;2.33;;;18.10;99.90;;;;;;4167486;28;20719;-95
2022/08/10 03:42:57;;;;;;;3.13;2.25;;;18.00;99.90;;;;;;4168253;28;20616;-95
2022/08/10 03:45:00;;;;;;;6.07;2.45;;;18.00;99.90;;;;;;4167000;28;20175;-94
2022/08/10 03:47:04;;;;;;;4.70;2.08;;;18.00;99.90;;;;;;4166644;28;20637;-93
2022/08/10 03:49:05;;;;;;;4.28;2.33;;;18.00;99.90;;;;;;4167582;28;20164;-91
2022/08/10 03:51:08;;;;;;;3.67;2.20;;;18.00;99.90;;;;;;4166800;28;20180;-94
2022/08/10 03:53:10;;;;;;;4.03;2.40;;;18.00;99.90;;;;;;4169284;28;20188;-89
2022/08/10 03:55:11;;;;;;;7.47;2.75;;;18.10;99.90;;;;;;4167487;28;20168;-92
2022/08/10 03:57:13;;;;;;;3.70;2.50;;;18.10;99.90;;;;;;4166830;28;20246;-93
2022/08/10 03:59:15;;;;;;;5.40;2.38;;;18.00;99.90;;;;;;4167302;28;20227;-90
2022/08/10 04:01:17;;;;;;;3.95;2.70;;;17.90;99.90;;;;;;4167166;28;20211;-95
2022/08/10 04:03:18;;;;;;;3.88;2.35;;;17.80;99.90;;;;;;4166292;28;20271;-90
2022/08/10 04:05:19;;;;;;;9.75;2.85;;;17.70;99.90;;;;;;4182808;28;20186;-91
2022/08/10 04:07:20;;;;;;;5.03;2.50;;;17.70;99.90;;;;;;4182893;28;20175;-89
2022/08/10 04:09:23;;;;;;;5.55;2.60;;;17.70;99.90;;;;;;4166450;28;20195;-94
2022/08/10 04:11:24;;;;;;;3.75;2.63;;;17.60;99.90;;;;;;4166088;28;20183;-95
2022/08/10 04:13:25;;;;;;;6.93;2.42;;;17.50;99.90;;;;;;4166629;28;20652;-89
2022/08/10 04:15:25;;;;;;;3.90;2.72;;;17.50;99.90;;;;;;4166387;28;20172;-89
2022/08/10 04:17:26;;;;;;;4.05;2.75;;;17.50;99.90;;;;;;4166071;28;20215;-95
2022/08/10 04:19:34;;;;;;;5.70;2.85;;;17.40;99.90;;;;;;4166222;28;20168;-90
2022/08/10 04:21:42;;;;;;;3.80;2.88;;;17.40;99.90;;;;;;4165956;28;20243;-89
2022/08/10 04:23:46;;;;;;;4.80;2.72;;;17.40;99.90;;;;;;4166255;28;20191;-90
2022/08/10 04:25:47;;;;;;;7.25;2.83;;;17.30;99.90;;;;;;4165981;28;20174;-91
2022/08/10 04:27:49;;;;;;;6.65;2.75;;;17.30;99.90;;;;;;4182913;28;20175;-95
2022/08/10 04:29:50;;;;;;;3.63;2.67;;;17.20;99.90;;;;;;4183782;28;20270;-89
2022/08/10 04:31:52;;;;;;;4.95;2.88;;;17.20;99.90;;;;;;4166927;28;20180;-93
2022/08/10 04:33:56;;;;;;;6.10;3.50;;;17.20;99.90;;;;;;4166432;28;20211;-91
2022/08/10 04:35:58;;;;;;;3.60;3.05;;;17.30;99.90;;;;;;4166377;28;20176;-94
2022/08/10 04:38:00;;;;;;;9.45;3.53;;;17.30;99.90;;;;;;4167962;28;20191;-93
2022/08/10 04:40:02;;;;;;;5.75;3.03;;;17.30;99.90;;;;;;4166548;28;20164;-88
2022/08/10 04:42:03;;;;;;;6.80;3.30;;;17.30;99.90;;;;;;4183870;28;20207;-92
2022/08/10 04:44:04;;;;;;;5.85;2.80;;;17.30;99.90;;;;;;4166159;28;20196;-95
2022/08/10 04:46:04;;;;;;;3.70;3.00;;;17.30;99.90;;;;;;4166695;28;20172;-94
2022/08/10 04:48:05;;;;;;;7.15;3.25;;;17.30;99.90;;;;;;4166782;28;20691;-94
2022/08/10 04:50:06;;;;;;;9.82;3.47;;;17.20;99.90;;;;;;4183135;28;20241;-93
2022/08/10 04:52:07;;;;;;;5.85;3.00;;;17.20;99.90;;;;;;4166287;28;20695;-94
2022/08/10 04:54:08;;;;;;;5.57;3.30;;;17.30;99.90;;;;;;4182969;28;20233;-95
2022/08/10 04:56:08;;;;;;;4.70;3.40;;;17.30;99.90;;;;;;4166380;28;20220;-95
2022/08/10 04:58:09;;;;;;;5.03;2.88;;;17.30;99.90;;;;;;4183218;28;20171;-94
2022/08/10 05:00:11;;;;;;;5.78;3.10;;;17.30;99.90;;;;;;4165651;28;20179;-94
2022/08/10 05:02:11;;;;;;;4.47;3.35;;;17.30;99.90;;;;;;4166182;28;20203;-95
2022/08/10 05:04:12;;;;;;;3.95;3.15;;;17.30;99.90;;;;;;4183061;28;20199;-94
2022/08/10 05:06:13;;;;;;;5.35;3.35;;;17.40;99.90;;;;;;4167741;28;20169;-91
2022/08/10 05:08:13;;;;;;;13.88;3.55;;;17.40;99.90;;;;;;4165843;28;20629;-94
2022/08/10 05:10:14;;;;;;;3.92;3.50;;;17.40;99.90;;;;;;4167592;28;20199;-94
2022/08/10 05:12:15;;;;;;;10.52;3.33;;;17.40;99.90;;;;;;4182830;28;20190;-93
2022/08/10 05:14:16;;;;;;;7.55;3.20;;;17.40;99.90;;;;;;4166176;28;20760;-89
2022/08/10 05:16:16;;;;;;;6.82;3.25;;;17.40;99.90;;;;;;4165702;28;20250;-95
2022/08/10 05:18:17;;;;;;;4.82;3.30;;;17.40;99.90;;;;;;4166221;28;20175;-94
2022/08/10 05:20:19;;;;;;;5.88;3.22;;;17.50;99.90;;;;;;4165363;28;20191;-90
2022/08/10 05:22:20;;;;;;;4.82;3.30;;;17.50;99.90;;;;;;4181496;28;20533;-95
2022/08/10 05:24:20;;;;;;;7.22;3.15;;;17.50;99.90;;;;;;4165107;28;20176;-93
2022/08/10 05:26:21;;;;;;;4.70;3.17;;;17.50;99.90;;;;;;4165938;28;20176;-94
2022/08/10 05:28:22;;;;;;;8.55;3.28;;;17.60;99.90;;;;;;4166398;28;20181;-95
2022/08/10 05:30:22;;;;;;;8.90;3.40;;;17.60;99.90;;;;;;4166268;28;20238;-89
2022/08/10 05:32:23;;;;;;;6.78;3.63;;;17.60;99.90;;;;;;4165585;28;20595;-93
2022/08/10 05:34:26;;;;;;;7.40;3.70;;;17.70;99.90;;;;;;4166288;28;20172;-88
2022/08/10 05:36:27;;;;;;;4.22;3.30;;;17.70;99.90;;;;;;4165862;28;20278;-89
2022/08/10 05:38:29;;;;;;;8.82;3.80;;;17.70;99.90;;;;;;4165985;28;20177;-95
2022/08/10 05:40:30;;;;;;;6.00;3.75;;;17.70;99.90;;;;;;4166334;28;20511;-94
2022/08/10 05:42:31;;;;;;;9.02;4.00;;;17.70;99.90;;;;;;4166028;28;20174;-96
2022/08/10 05:44:32;;;;;;;7.30;3.63;;;17.80;99.90;;;;;;4182292;28;20623;-94
2022/08/10 05:46:33;;;;;;;7.55;3.45;;;17.80;99.90;;;;;;4167751;28;20176;-90
2022/08/10 05:48:36;;;;;;;6.85;3.78;;;17.90;99.90;;;;;;4184993;28;20229;-89
2022/08/10 05:50:37;;;;;;;6.30;4.20;;;17.90;99.90;;;;;;4169413;28;20179;-96
2022/08/10 05:52:38;;;;;;;7.68;3.58;;;18.10;99.90;;;;;;4169395;28;20192;-94
2022/08/10 05:54:39;;;;;;;8.45;3.20;;;18.10;99.90;;;;;;4168271;28;20260;-94
2022/08/10 05:56:44;;;;;;;6.90;3.95;;;18.10;99.90;;;;;;4169604;28;20200;-90
2022/08/10 05:58:45;;;;;;;5.82;3.90;;;18.30;99.90;;;;;;4168964;28;20206;-89
2022/08/10 06:00:52;;;;;;;6.55;3.80;;;18.30;99.90;;;;;;4185717;28;20171;-91
2022/08/10 06:02:57;;;;;;;9.23;3.80;;;18.40;99.90;;;;;;4170254;28;20644;-90
2022/08/10 06:05:07;;;;;;;7.80;3.80;;;18.30;99.90;;;;;;4169379;28;20191;-94
2022/08/10 06:07:10;;;;;;;8.38;4.05;;;18.50;99.90;;;;;;4170389;28;20172;-90
2022/08/10 06:09:11;;;;;;;6.38;3.75;;;18.60;99.90;;;;;;4186867;28;20206;-95
2022/08/10 06:11:14;;;;;;;7.85;4.00;;;18.70;99.90;;;;;;4186582;28;20179;-96
2022/08/10 06:15:38;;;;;;;10.93;4.00;;;18.80;99.90;;;;;;4186637;28;20183;-96
2022/08/10 06:17:40;;;;;;;9.68;4.00;;;18.80;99.90;;;;;;4169988;28;20207;-94
2022/08/10 06:19:43;;;;;;;7.25;4.22;;;18.90;99.90;;;;;;4171727;28;20232;-94
2022/08/10 06:21:44;;;;;;;8.90;4.88;;;19.00;99.90;;;;;;4173740;28;20180;-89
2022/08/10 06:23:45;;;;;;;11.65;4.10;;;19.00;99.90;;;;;;4173253;28;20192;-94
2022/08/10 06:25:46;;;;;;;6.25;4.40;;;19.10;99.90;;;;;;4188246;28;20213;-93
2022/08/10 06:27:47;;;;;;;5.00;3.85;;;19.30;99.90;;;;;;4172436;28;20665;-90
2022/08/10 06:29:49;;;;;;;7.80;3.95;;;19.30;99.90;;;;;;4170412;28;20195;-94
2022/08/10 06:31:52;;;;;;;7.22;4.13;;;19.30;99.90;;;;;;4169507;28;20622;-94
2022/08/10 06:33:54;;;;;;;6.22;4.28;;;19.30;99.90;;;;;;4169634;28;20292;-94
2022/08/10 06:35:56;;;;;;;6.32;4.10;;;19.40;99.90;;;;;;4167726;28;20176;-96
2022/08/10 06:38:00;;;;;;;11.40;4.05;;;19.50;99.90;;;;;;4169651;28;20191;-94
2022/08/10 06:40:01;;;;;;;9.82;3.88;;;19.50;99.90;;;;;;4170264;28;20199;-94
2022/08/10 06:42:06;;;;;;;8.43;4.15;;;19.60;99.90;;;;;;4169445;28;20218;-89
2022/08/10 06:44:14;;;;;;;13.43;4.63;;;19.60;99.90;;;;;;4170390;28;20204;-90
2022/08/10 06:46:18;;;;;;;11.80;4.30;;;19.60;99.90;;;;;;4168833;28;20168;-90
2022/08/10 06:48:33;;;;;;;12.18;4.93;;;19.80;99.90;;;;;;4170388;28;20262;-90
2022/08/10 06:50:40;;;;;;;7.25;4.10;;;20.00;99.90;;;;;;4185541;28;20300;-96
2022/08/10 06:52:42;;;;;;;10.25;4.15;;;20.00;99.90;;;;;;4169166;28;20227;-95
2022/08/10 06:54:43;;;;;;;10.00;4.40;;;20.10;99.90;;;;;;4167327;28;20172;-96
2022/08/10 06:56:45;;;;;;;10.10;4.35;;;20.20;99.90;;;;;;4168854;28;20223;-89
2022/08/10 06:59:00;;;;;;;7.80;4.57;;;20.30;99.90;;;;;;4169468;28;20271;-89
2022/08/10 07:01:04;;;;;;;10.30;4.38;;;20.60;99.90;;;;;;4184913;28;20675;-91
2022/08/10 07:03:10;;;;;;;9.38;4.72;;;20.70;99.90;;;;;;4169435;28;20204;-95
2022/08/10 07:05:15;;;;;;;8.45;4.75;;;20.70;99.90;;;;;;4168298;28;20255;-89
2022/08/10 07:07:21;;;;;;;11.40;4.70;;;20.80;99.90;;;;;;4167864;28;20176;-90
2022/08/10 07:09:22;;;;;;;8.50;4.95;;;20.90;99.90;;;;;;4168667;28;20253;-90
2022/08/10 07:11:24;;;;;;;9.55;4.70;;;20.90;99.90;;;;;;4169530;28;20234;-90
2022/08/10 07:13:26;;;;;;;4.95;3.70;;;21.00;99.90;;;;;;4174701;28;20690;-89
2022/08/10 07:15:29;;;;;;;10.07;4.30;;;21.10;99.90;;;;;;4168944;28;20196;-90
2022/08/10 07:17:31;;;;;;;9.43;3.90;;;21.30;99.90;;;;;;4169566;28;20328;-95
2022/08/10 07:19:36;;;;;;;8.77;4.22;;;22.10;99.90;;;;;;4172726;28;20222;-89
2022/08/10 07:21:45;;;;;;;8.23;3.70;;;23.30;99.90;;;;;;4175668;28;20212;-89
2022/08/10 07:23:48;;;;;;;4.72;3.25;;;24.20;99.90;;;;;;4177923;28;20196;-90
2022/08/10 07:25:58;;;;;;;7.15;3.55;;;25.40;99.90;;;;;;4189454;28;20178;-91
2022/08/10 07:28:01;;;;;;;8.52;3.80;;;26.30;99.90;;;;;;4169793;28;20168;-89
2022/08/10 07:30:03;;;;;;;11.55;3.58;;;26.60;99.90;;;;;;4172269;28;20215;-89
2022/08/10 07:32:05;;;;;;;12.02;4.38;;;26.60;99.90;;;;;;4168349;28;20263;-96
2022/08/10 07:34:08;;;;;;;7.00;3.58;;;26.30;99.90;;;;;;4175051;28;20196;-93
2022/08/10 07:36:10;;;;;;;8.85;3.88;;;26.30;99.90;;;;;;4171527;28;20184;-89
2022/08/10 07:38:16;;;;;;;5.43;3.63;;;26.40;99.90;;;;;;4173336;28;20191;-95
2022/08/10 07:40:20;;;;;;;7.30;3.60;;;26.30;99.90;;;;;;4171468;28;20198;-96
2022/08/10 07:42:23;;;;;;;10.00;3.60;;;26.40;99.90;;;;;;4175460;28;20227;-90
2022/08/10 07:44:27;;;;;;;10.50;3.72;;;26.50;99.90;;;;;;4176005;28;20164;-95
2022/08/10 07:46:29;;;;;;;7.63;3.08;;;26.80;99.90;;;;;;4172113;28;20176;-94
2022/08/10 07:48:37;;;;;;;6.38;3.28;;;27.10;99.90;;;;;;4171215;28;20254;-94
2022/08/10 07:50:39;;;;;;;5.53;3.20;;;27.30;99.90;;;;;;4170193;28;20247;-95
2022/08/10 07:52:42;;;;;;;8.32;3.50;;;27.80;99.90;;;;;;4170273;28;20196;-94
2022/08/10 07:54:48;;;;;;;9.88;3.63;;;28.50;99.90;;;;;;4171718;28;20239;-87
2022/08/10 07:56:52;;;;;;;8.00;3.58;;;28.70;99.90;;;;;;4169646;28;20707;-90
2022/08/10 07:59:02;;;;;;;8.02;3.13;;;28.70;99.90;;;;;;4187555;28;20163;-95
2022/08/10 08:01:03;;;;;;;12.10;3.55;;;28.30;99.90;;;;;;4176141;28;20224;-96
2022/08/10 08:03:08;;;;;;;10.38;3.70;;;28.10;99.90;;;;;;4191106;28;20299;-89
2022/08/10 08:05:12;;;;;;;9.38;3.55;;;28.20;99.90;;;;;;4187696;28;20182;-92
2022/08/10 08:07:14;;;;;;;5.53;3.60;;;28.40;99.90;;;;;;4168408;28;20194;-88
2022/08/10 08:09:16;;;;;;;8.55;3.35;;;28.60;99.90;;;;;;4167475;28;20172;-89
2022/08/10 08:11:21;;;;;;;5.72;3.13;;;28.70;99.90;;;;;;4171000;28;20168;-94
2022/08/10 08:13:24;;;;;;;8.38;2.90;;;28.50;99.90;;;;;;4172843;28;20258;-89
2022/08/10 08:15:26;;;;;;;4.63;3.10;;;28.30;99.90;;;;;;4155342;28;20271;-95
2022/08/10 08:17:29;;;;;;;5.68;3.38;;;28.70;99.90;;;;;;4174443;28;20287;-90
2022/08/10 08:19:31;;;;;;;9.38;3.10;;;28.50;99.90;;;;;;4172477;28;20168;-90
2022/08/10 08:21:33;;;;;;;10.25;3.20;;;28.70;99.90;;;;;;4171734;28;20184;-89
2022/08/10 08:23:36;;;;;;;7.65;3.30;;;29.10;99.90;;;;;;4168159;28;20200;-88
2022/08/10 08:25:37;;;;;;;5.15;3.42;;;29.30;99.90;;;;;;4185627;28;20309;-92
2022/08/10 08:27:40;;;;;;;8.32;2.70;;;29.20;99.90;;;;;;4168435;28;20188;-95
2022/08/10 08:29:44;;;;;;;5.20;2.80;;;28.70;99.90;;;;;;4187376;28;20250;-88
2022/08/10 08:31:47;;;;;;;15.25;3.22;;;28.30;99.90;;;;;;4170990;28;20644;-88
2022/08/10 08:33:49;;;;;;;8.02;3.22;;;28.30;99.90;;;;;;4173416;28;20211;-95
2022/08/10 08:35:50;;;;;;;6.57;3.22;;;28.50;99.90;;;;;;4172374;28;20165;-95
2022/08/10 08:37:53;;;;;;;4.25;2.90;;;28.40;99.90;;;;;;4173358;28;20250;-89
2022/08/10 08:39:54;;;;;;;8.73;2.95;;;28.60;99.90;;;;;;4189058;28;20186;-94
2022/08/10 08:42:29;;;;;;;5.65;3.10;;;28.60;99.90;;;;;;4190466;28;20218;-95
2022/08/10 08:44:57;;;;;;;9.43;3.10;;;28.50;99.90;;;;;;4169858;28;20181;-94
2022/08/10 08:47:23;;;;;;;10.57;4.05;;;28.20;99.90;;;;;;4170179;28;20168;-94
2022/08/10 08:49:43;;;;;;;6.95;2.85;;;28.00;99.90;;;;;;4174070;28;20164;-89
2022/08/10 08:52:23;;;;;;;12.32;3.50;;;28.40;99.90;;;;;;4168416;28;20172;-89
2022/08/10 08:54:47;;;;;;;3.92;2.80;;;28.30;99.90;;;;;;4171590;28;20629;-92
2022/08/10 08:57:18;;;;;;;10.10;2.72;;;28.10;99.90;;;;;;4187558;28;20214;-88
2022/08/10 08:59:53;;;;;;;9.90;3.00;;;28.50;99.90;;;;;;4168751;28;20188;-90
2022/08/10 09:02:08;;;;;;;10.25;2.47;;;29.10;99.90;;;;;;4167583;28;20179;-89
2022/08/10 09:04:36;;;;;;;5.72;2.72;;;29.10;99.90;;;;;;4186141;28;20215;-95
2022/08/10 09:07:07;;;;;;;10.57;2.92;;;29.20;99.90;;;;;;4185055;28;20664;-89
2022/08/10 09:09:34;;;;;;;7.55;2.60;;;29.40;99.90;;;;;;4185411;28;20235;-89
2022/08/10 09:11:46;;;;;;;10.40;2.88;;;29.80;99.90;;;;;;4184788;28;20179;-89
2022/08/10 09:14:19;;;;;;;7.95;2.33;;;29.80;99.90;;;;;;4168896;28;20199;-96
2022/08/10 09:16:46;;;;;;;8.85;2.50;;;29.80;99.90;;;;;;4155248;28;20224;-91
2022/08/10 09:18:55;;;;;;;6.40;2.40;;;29.90;99.90;;;;;;4168098;28;20168;-95
2022/08/10 09:21:18;;;;;;;11.48;2.85;;;29.60;99.90;;;;;;4185330;28;20171;-96
2022/08/10 09:23:30;;;;;;;8.23;3.20;;;29.10;99.90;;;;;;4171908;28;20208;-92
2022/08/10 09:25:44;;;;;;;7.55;2.65;;;28.80;99.90;;;;;;4189412;28;20207;-93
2022/08/10 09:27:51;;;;;;;5.82;2.28;;;28.70;99.90;;;;;;4174703;28;20214;-88
2022/08/10 09:30:00;;;;;;;5.07;2.42;;;29.20;99.90;;;;;;4173171;28;20672;-96
2022/08/10 09:32:09;;;;;;;6.93;2.35;;;29.70;99.90;;;;;;4171462;28;20159;-95
2022/08/10 09:34:22;;;;;;;10.32;2.42;;;30.00;99.90;;;;;;4175921;28;20235;-90
2022/08/10 09:36:48;;;;;;;4.15;2.40;;;30.10;99.90;;;;;;4174984;28;20199;-93
2022/08/10 09:39:05;;;;;;;5.72;2.80;;;30.00;99.90;;;;;;4173377;28;20168;-89
2022/08/10 09:41:32;;;;;;;14.57;2.88;;;30.30;99.90;;;;;;4172361;28;20195;-88
2022/08/10 09:43:49;;;;;;;9.82;2.35;;;29.90;99.90;;;;;;4172840;28;20913;-88
2022/08/10 09:46:08;;;;;;;3.60;2.13;;;29.70;99.90;;;;;;4189260;28;20171;-95
2022/08/10 09:48:29;;;;;;;3.85;2.33;;;29.70;99.90;;;;;;4170043;28;20176;-95
2022/08/10 09:50:47;;;;;;;9.02;2.30;;;29.60;99.90;;;;;;4188906;28;20651;-88
2022/08/10 09:53:36;;;;;;;5.22;2.33;;;29.80;99.90;;;;;;4169973;28;20250;-89
2022/08/10 09:55:58;;;;;;;3.92;1.95;;;29.80;99.90;;;;;;4158005;28;20259;-95
2022/08/10 09:58:35;;;;;;;7.00;2.58;;;29.90;99.90;;;;;;4171306;28;20254;-90
2022/08/10 10:00:44;;;;;;;4.57;1.88;;;29.80;99.90;;;;;;4172171;28;20271;-95
2022/08/10 10:02:53;;;;;;;5.43;2.10;;;29.90;99.90;;;;;;4187384;28;20199;-88
2022/08/10 10:04:57;;;;;;;11.20;2.72;;;29.60;99.90;;;;;;4173466;28;20171;-94
2022/08/10 10:07:10;;;;;;;9.38;2.83;;;29.60;99.90;;;;;;4170923;28;20187;-95
2022/08/10 10:09:31;;;;;;;6.68;2.38;;;29.60;99.90;;;;;;4168666;28;20264;-90
2022/08/10 10:12:09;;;;;;;10.77;2.40;;;29.70;99.90;;;;;;4169678;28;20565;-94
2022/08/10 10:14:34;;;;;;;4.65;2.20;;;29.60;99.90;;;;;;4173822;28;20206;-91
2022/08/10 10:17:14;;;;;;;9.50;2.40;;;29.50;99.90;;;;;;4167576;28;20278;-92
2022/08/10 10:19:24;;;;;;;7.32;2.17;;;29.60;99.90;;;;;;4154415;28;20237;-89
2022/08/10 10:22:05;;;;;;;7.78;2.30;;;29.60;99.90;;;;;;4167473;28;20258;-91
2022/08/10 10:24:21;;;;;;;7.93;2.35;;;29.40;99.90;;;;;;4120362;28;20223;-94
2022/08/10 10:26:44;;;;;;;3.67;1.75;;;29.10;99.90;;;;;;4186306;28;20191;-89
2022/08/10 10:29:01;;;;;;;13.98;2.80;;;28.90;99.90;;;;;;4170763;28;20189;-95
2022/08/10 10:31:21;;;;;;;9.55;2.22;;;28.60;99.90;;;;;;4171920;28;20291;-94
2022/08/10 10:33:48;;;;;;;9.20;2.30;;;28.70;99.90;;;;;;4171443;28;20243;-90
2022/08/10 10:35:53;;;;;;;11.00;2.00;;;28.70;99.90;;;;;;4171309;28;20180;-94
2022/08/10 10:37:57;;;;;;;10.20;2.45;;;28.80;99.90;;;;;;4168898;28;20222;-94
2022/08/10 10:40:00;;;;;;;5.65;2.30;;;28.80;99.90;;;;;;4169585;28;20181;-94
2022/08/10 10:42:07;;;;;;;11.65;2.15;;;28.70;99.90;;;;;;4153800;28;20177;-89
2022/08/10 10:44:34;;;;;;;10.85;2.40;;;28.60;99.90;;;;;;4172432;28;20192;-93
2022/08/10 10:46:55;;;;;;;6.63;2.17;;;28.70;99.90;;;;;;4172838;28;20187;-95
2022/08/10 10:49:19;;;;;;;5.93;2.00;;;28.70;99.90;;;;;;4187668;28;20191;-96
2022/08/10 10:51:37;;;;;;;5.13;2.20;;;28.60;99.90;;;;;;4186807;28;20226;-95
2022/08/10 10:54:14;;;;;;;5.47;2.00;;;28.50;99.90;;;;;;4175094;28;20263;-90
2022/08/10 10:56:53;;;;;;;13.18;2.78;;;28.60;99.90;;;;;;4179215;28;20204;-89
2022/08/10 10:59:14;;;;;;;6.22;2.75;;;28.80;99.90;;;;;;4193882;28;20171;-96
2022/08/10 11:01:21;;;;;;;13.02;2.47;;;29.00;99.90;;;;;;4177728;28;20176;-89
2022/08/10 11:03:52;;;;;;;9.00;2.50;;;29.50;99.90;;;;;;4190360;28;20199;-92
2022/08/10 11:06:11;;;;;;;5.40;2.03;;;29.10;99.90;;;;;;4171823;28;20191;-90
2022/08/10 11:08:22;;;;;;;7.15;1.70;;;29.10;99.90;;;;;;4173889;28;20180;-96